createdAt,value
2022-09-12T00:01:51.123Z,100.00
2022-09-12T00:04:17.697Z,100.00
2022-09-12T00:06:44.607Z,100.00
2022-09-12T00:09:13.527Z,100.00
2022-09-12T00:11:43.051Z,100.00
2022-09-12T00:14:13.284Z,100.00
2022-09-12T00:16:40.272Z,100.00
2022-09-12T00:19:07.792Z,100.00
2022-09-12T00:21:36.967Z,100.00
2022-09-12T00:24:04.149Z,100.00
2022-09-12T00:26:32.202Z,100.00
2022-09-12T00:28:58.816Z,100.00
2022-09-12T00:31:26.808Z,100.00
2022-09-12T00:33:56.846Z,100.00
2022-09-12T00:36:25.455Z,100.00
2022-09-12T00:38:52.719Z,100.00
2022-09-12T00:41:25.594Z,100.00
2022-09-12T00:43:54.914Z,100.00
2022-09-12T00:46:39.469Z,100.00
2022-09-12T00:49:17.422Z,100.00
2022-09-12T00:51:49.570Z,100.00
2022-09-12T00:54:21.566Z,100.00
2022-09-12T00:56:51.484Z,100.00
2022-09-12T00:59:23.844Z,100.00
2022-09-12T01:01:52.021Z,100.00
2022-09-12T01:04:22.118Z,100.00
2022-09-12T01:06:50.118Z,100.00
2022-09-12T01:09:21.776Z,100.00
2022-09-12T01:11:50.431Z,100.00
2022-09-12T01:14:18.235Z,100.00
2022-09-12T01:16:46.347Z,100.00
2022-09-12T01:19:20.218Z,100.00
2022-09-12T01:21:59.208Z,100.00
2022-09-12T01:24:47.619Z,100.00
2022-09-12T01:27:36.988Z,100.00
2022-09-12T01:30:25.434Z,100.00
2022-09-12T01:33:17.500Z,100.00
2022-09-12T01:35:51.476Z,100.00
2022-09-12T01:38:38.369Z,100.00
2022-09-12T01:41:42.282Z,100.00
2022-09-12T01:44:25.232Z,100.00
2022-09-12T01:47:03.592Z,100.00
2022-09-12T01:49:38.966Z,100.00
2022-09-12T01:52:15.572Z,100.00
2022-09-12T01:54:49.371Z,100.00
2022-09-12T01:57:49.433Z,100.00
2022-09-12T02:00:16.583Z,100.00
2022-09-12T02:02:54.000Z,100.00
2022-09-12T02:05:50.470Z,100.00
2022-09-12T02:08:30.564Z,100.00
2022-09-12T02:11:02.558Z,100.00
2022-09-12T02:13:35.159Z,100.00
2022-09-12T02:16:10.778Z,100.00
2022-09-12T02:18:47.108Z,100.00
2022-09-12T02:21:13.907Z,100.00
2022-09-12T02:23:45.496Z,100.00
2022-09-12T02:26:37.778Z,100.00
2022-09-12T02:29:04.904Z,100.00
2022-09-12T02:32:06.028Z,100.00
2022-09-12T02:34:42.676Z,100.00
2022-09-12T02:37:34.012Z,100.00
2022-09-12T02:40:01.296Z,100.00
2022-09-12T02:42:27.966Z,100.00
2022-09-12T02:44:57.023Z,100.00
2022-09-12T02:47:31.080Z,100.00
2022-09-12T02:49:59.328Z,100.00
2022-09-12T02:52:28.088Z,100.00
2022-09-12T02:54:55.506Z,100.00
2022-09-12T02:57:23.219Z,100.00
2022-09-12T02:59:53.170Z,100.00
2022-09-12T03:02:29.144Z,100.00
2022-09-12T03:04:55.702Z,100.00
2022-09-12T03:07:43.964Z,100.00
2022-09-12T03:10:19.373Z,100.00
2022-09-12T03:13:06.976Z,100.00
2022-09-12T03:15:36.377Z,100.00
2022-09-12T03:18:21.451Z,100.00
2022-09-12T03:20:59.420Z,100.00
2022-09-12T03:23:38.795Z,100.00
2022-09-12T03:26:48.167Z,100.00
2022-09-12T03:29:16.169Z,100.00
2022-09-12T03:31:56.932Z,100.00
2022-09-12T03:34:25.328Z,100.00
2022-09-12T03:36:52.977Z,100.00
2022-09-12T03:39:20.376Z,100.00
2022-09-12T03:41:47.167Z,100.00
2022-09-12T03:44:13.834Z,100.00
2022-09-12T03:46:40.509Z,100.00
2022-09-12T03:49:07.111Z,100.00
2022-09-12T03:51:33.636Z,100.00
2022-09-12T03:54:00.114Z,100.00
2022-09-12T03:56:27.589Z,100.00
2022-09-12T03:58:54.116Z,100.00
2022-09-12T04:01:20.883Z,100.00
2022-09-12T04:03:49.688Z,100.00
2022-09-12T04:06:20.848Z,100.00
2022-09-12T04:08:53.082Z,100.00
2022-09-12T04:11:21.268Z,100.00
2022-09-12T04:13:48.597Z,100.00
2022-09-12T04:16:16.702Z,100.00
2022-09-12T04:18:43.504Z,100.00
2022-09-12T04:21:13.367Z,100.00
2022-09-12T04:23:40.269Z,100.00
2022-09-12T04:26:06.853Z,100.00
2022-09-12T04:28:35.423Z,100.00
2022-09-12T04:31:12.526Z,100.00
2022-09-12T04:33:39.475Z,100.00
2022-09-12T04:36:09.054Z,100.00
2022-09-12T04:38:36.534Z,100.00
2022-09-12T04:41:23.756Z,100.00
2022-09-12T04:43:58.826Z,100.00
2022-09-12T04:46:27.069Z,100.00
2022-09-12T04:48:56.917Z,100.00
2022-09-12T04:51:37.913Z,100.00
2022-09-12T04:54:11.976Z,100.00
2022-09-12T04:56:40.511Z,100.00
2022-09-12T04:59:08.835Z,100.00
2022-09-12T05:01:35.973Z,100.00
2022-09-12T05:04:03.733Z,100.00
2022-09-12T05:06:33.275Z,100.00
2022-09-12T05:09:01.915Z,100.00
2022-09-12T05:11:52.984Z,100.00
2022-09-12T05:14:18.162Z,100.00
2022-09-12T05:16:49.050Z,100.00
2022-09-12T05:19:16.188Z,100.00
2022-09-12T05:21:42.815Z,100.00
2022-09-12T05:24:11.006Z,100.00
2022-09-12T05:26:37.553Z,100.00
2022-09-12T05:29:05.607Z,100.00
2022-09-12T05:31:32.123Z,100.00
2022-09-12T05:33:58.626Z,100.00
2022-09-12T05:36:27.956Z,100.00
2022-09-12T05:38:54.809Z,100.00
2022-09-12T05:41:25.256Z,100.00
2022-09-12T05:43:57.454Z,100.00
2022-09-12T05:46:26.860Z,100.00
2022-09-12T05:48:56.311Z,100.00
2022-09-12T05:51:29.423Z,100.00
2022-09-12T05:53:59.314Z,100.00
2022-09-12T05:56:31.219Z,100.00
2022-09-12T05:59:04.816Z,100.00
2022-09-12T06:01:32.438Z,100.00
2022-09-12T06:04:02.167Z,100.00
2022-09-12T06:06:30.288Z,100.00
2022-09-12T06:09:02.127Z,100.00
2022-09-12T06:11:31.119Z,100.00
2022-09-12T06:13:59.051Z,100.00
2022-09-12T06:16:31.615Z,100.00
2022-09-12T06:19:01.112Z,100.00
2022-09-12T06:21:28.865Z,100.00
2022-09-12T06:23:55.819Z,100.00
2022-09-12T06:26:25.595Z,100.00
2022-09-12T06:28:55.373Z,100.00
2022-09-12T06:31:42.503Z,100.00
2022-09-12T06:34:12.124Z,100.00
2022-09-12T06:36:44.994Z,100.00
2022-09-12T06:39:17.115Z,100.00
2022-09-12T06:41:45.808Z,100.00
2022-09-12T06:44:16.162Z,100.00
2022-09-12T06:46:43.919Z,100.00
2022-09-12T06:49:10.928Z,100.00
2022-09-12T06:51:37.707Z,100.00
2022-09-12T06:54:05.758Z,100.00
2022-09-12T06:56:34.209Z,100.00
2022-09-12T06:59:00.889Z,100.00
2022-09-12T07:01:30.476Z,100.00
2022-09-12T07:04:00.427Z,100.00
2022-09-12T07:06:32.394Z,100.00
2022-09-12T07:09:00.354Z,100.00
2022-09-12T07:11:31.834Z,100.00
2022-09-12T07:14:00.626Z,100.00
2022-09-12T07:16:28.355Z,100.00
2022-09-12T07:18:58.012Z,100.00
2022-09-12T07:21:25.329Z,100.00
2022-09-12T07:23:52.248Z,100.00
2022-09-12T07:26:18.927Z,100.00
2022-09-12T07:28:45.744Z,100.00
2022-09-12T07:31:18.438Z,100.00
2022-09-12T07:33:45.194Z,100.00
2022-09-12T07:36:16.411Z,100.00
2022-09-12T07:38:43.997Z,100.00
2022-09-12T07:41:33.705Z,100.00
2022-09-12T07:44:02.496Z,100.00
2022-09-12T07:46:30.982Z,100.00
2022-09-12T07:48:59.262Z,100.00
2022-09-12T07:51:27.395Z,100.00
2022-09-12T07:53:54.208Z,100.00
2022-09-12T07:56:24.047Z,100.00
2022-09-12T07:58:52.736Z,100.00
2022-09-12T08:01:21.413Z,100.00
2022-09-12T08:03:50.452Z,100.00
2022-09-12T08:06:24.139Z,100.00
2022-09-12T08:08:53.928Z,100.00
2022-09-12T08:11:22.730Z,100.00
2022-09-12T08:13:55.371Z,100.00
2022-09-12T08:16:24.088Z,100.00
2022-09-12T08:18:51.305Z,100.00
2022-09-12T08:21:24.828Z,100.00
2022-09-12T08:23:57.403Z,100.00
2022-09-12T08:26:24.821Z,100.00
2022-09-12T08:28:52.418Z,100.00
2022-09-12T08:31:21.628Z,100.00
2022-09-12T08:33:48.467Z,100.00
2022-09-12T08:36:17.806Z,100.00
2022-09-12T08:38:46.417Z,100.00
2022-09-12T08:41:19.152Z,100.00
2022-09-12T08:44:17.508Z,100.00
2022-09-12T08:46:50.100Z,100.00
2022-09-12T08:49:29.577Z,100.00
2022-09-12T08:52:00.192Z,100.00
2022-09-12T08:54:30.145Z,100.00
2022-09-12T08:57:02.649Z,100.00
2022-09-12T08:59:45.007Z,100.00
2022-09-12T09:02:47.843Z,100.00
2022-09-12T09:05:17.372Z,100.00
2022-09-12T09:07:59.309Z,100.00
2022-09-12T09:10:48.983Z,100.00
2022-09-12T09:13:38.198Z,100.00
2022-09-12T09:16:10.929Z,100.00
2022-09-12T09:18:38.580Z,100.00
2022-09-12T09:21:30.262Z,100.00
2022-09-12T09:24:04.145Z,100.00
2022-09-12T09:26:43.420Z,100.00
2022-09-12T09:29:20.848Z,100.00
2022-09-12T09:31:51.865Z,100.00
2022-09-12T09:34:30.029Z,100.00
2022-09-12T09:37:21.239Z,100.00
2022-09-12T09:40:02.624Z,100.00
2022-09-12T09:43:03.536Z,100.00
2022-09-12T09:45:30.198Z,100.00
2022-09-12T09:48:06.419Z,100.00
2022-09-12T09:50:34.302Z,100.00
2022-09-12T09:53:03.482Z,100.00
2022-09-12T09:55:38.502Z,100.00
2022-09-12T09:58:06.801Z,100.00
2022-09-12T10:00:38.573Z,98.27
2022-09-12T10:03:13.949Z,98.88
2022-09-12T10:06:07.207Z,99.88
2022-09-12T10:08:36.632Z,96.77
2022-09-12T10:11:18.680Z,97.30
2022-09-12T10:13:54.876Z,90.21
2022-09-12T10:16:32.031Z,87.44
2022-09-12T10:19:01.537Z,88.46
2022-09-12T10:21:50.873Z,89.43
2022-09-12T10:24:26.049Z,86.52
2022-09-12T10:26:57.201Z,93.24
2022-09-12T10:29:30.340Z,81.49
2022-09-12T10:32:01.318Z,79.11
2022-09-12T10:34:42.760Z,80.74
2022-09-12T10:37:19.294Z,80.33
2022-09-12T10:39:56.354Z,85.93
2022-09-12T10:42:52.993Z,90.37
2022-09-12T10:45:31.171Z,92.33
2022-09-12T10:48:05.534Z,100.00
2022-09-12T10:50:41.286Z,100.00
2022-09-12T10:53:15.669Z,91.75
2022-09-12T10:55:56.036Z,97.02
2022-09-12T10:58:48.888Z,95.64
2022-09-12T11:01:34.175Z,99.07
2022-09-12T11:04:34.916Z,95.11
2022-09-12T11:07:17.431Z,94.81
2022-09-12T11:09:57.474Z,83.62
2022-09-12T11:12:32.714Z,86.01
2022-09-12T11:15:42.800Z,89.33
2022-09-12T11:18:50.463Z,90.80
2022-09-12T11:21:38.562Z,86.03
2022-09-12T11:24:15.853Z,89.47
2022-09-12T11:26:53.487Z,86.57
2022-09-12T11:29:46.855Z,75.04
2022-09-12T11:32:38.072Z,66.33
2022-09-12T11:35:04.806Z,67.19
2022-09-12T11:37:46.903Z,64.19
2022-09-12T11:40:20.197Z,73.02
2022-09-12T11:42:53.050Z,77.60
2022-09-12T11:45:30.094Z,74.06
2022-09-12T11:48:01.414Z,76.86
2022-09-12T11:50:31.317Z,68.61
2022-09-12T11:53:05.851Z,68.97
2022-09-12T11:55:44.063Z,63.48
2022-09-12T11:58:12.267Z,60.60
2022-09-12T12:00:54.394Z,61.25
2022-09-12T12:03:55.494Z,61.17
2022-09-12T12:06:30.392Z,59.60
2022-09-12T12:08:57.392Z,61.53
2022-09-12T12:11:38.483Z,62.05
2022-09-12T12:14:16.111Z,58.24
2022-09-12T12:16:43.596Z,59.75
2022-09-12T12:19:16.242Z,63.63
2022-09-12T12:21:48.475Z,59.70
2022-09-12T12:24:20.901Z,56.53
2022-09-12T12:26:52.658Z,55.68
2022-09-12T12:29:40.302Z,55.73
2022-09-12T12:32:09.571Z,56.82
2022-09-12T12:34:41.959Z,55.77
2022-09-12T12:37:21.692Z,53.04
2022-09-12T12:39:48.437Z,56.16
2022-09-12T12:42:36.212Z,54.47
2022-09-12T12:45:08.633Z,56.74
2022-09-12T12:47:38.199Z,54.45
2022-09-12T12:50:11.478Z,53.88
2022-09-12T12:53:00.978Z,53.21
2022-09-12T12:55:33.917Z,52.23
2022-09-12T12:58:02.415Z,51.08
2022-09-12T13:00:33.795Z,47.90
2022-09-12T13:03:06.721Z,48.22
2022-09-12T13:05:44.413Z,47.05
2022-09-12T13:08:24.918Z,47.65
2022-09-12T13:10:53.519Z,47.04
2022-09-12T13:13:45.304Z,47.65
2022-09-12T13:16:28.573Z,49.64
2022-09-12T13:18:57.268Z,49.71
2022-09-12T13:21:26.736Z,48.10
2022-09-12T13:24:13.839Z,44.92
2022-09-12T13:26:47.569Z,48.92
2022-09-12T13:29:21.410Z,50.10
2022-09-12T13:31:59.166Z,49.93
2022-09-12T13:34:35.287Z,48.17
2022-09-12T13:37:37.666Z,47.03
2022-09-12T13:40:12.497Z,51.43
2022-09-12T13:42:51.191Z,50.60
2022-09-12T13:45:29.059Z,54.86
2022-09-12T13:48:03.339Z,55.11
2022-09-12T13:50:41.231Z,56.43
2022-09-12T13:53:15.826Z,56.48
2022-09-12T13:55:49.151Z,52.66
2022-09-12T13:58:17.253Z,55.00
2022-09-12T14:00:45.560Z,55.69
2022-09-12T14:03:44.389Z,53.21
2022-09-12T14:06:12.700Z,50.91
2022-09-12T14:08:41.582Z,53.08
2022-09-12T14:11:18.951Z,52.65
2022-09-12T14:13:46.117Z,53.38
2022-09-12T14:16:15.926Z,50.50
2022-09-12T14:18:45.534Z,48.95
2022-09-12T14:21:30.385Z,48.98
2022-09-12T14:23:58.105Z,51.04
2022-09-12T14:26:30.550Z,52.76
2022-09-12T14:28:59.510Z,54.72
2022-09-12T14:31:37.879Z,55.75
2022-09-12T14:34:15.410Z,51.15
2022-09-12T14:36:55.963Z,49.70
2022-09-12T14:39:28.000Z,49.81
2022-09-12T14:42:13.544Z,48.60
2022-09-12T14:44:41.979Z,49.53
2022-09-12T14:47:15.181Z,50.37
2022-09-12T14:49:42.109Z,52.63
2022-09-12T14:52:24.629Z,53.59
2022-09-12T14:55:22.031Z,55.59
2022-09-12T14:57:50.110Z,58.46
2022-09-12T15:00:21.012Z,57.38
2022-09-12T15:02:49.471Z,59.41
2022-09-12T15:05:22.287Z,61.65
2022-09-12T15:07:53.936Z,63.47
2022-09-12T15:10:35.426Z,64.38
2022-09-12T15:13:16.857Z,64.17
2022-09-12T15:15:54.476Z,71.71
2022-09-12T15:18:22.801Z,80.68
2022-09-12T15:20:52.959Z,90.76
2022-09-12T15:23:46.824Z,91.05
2022-09-12T15:26:19.439Z,96.61
2022-09-12T15:28:46.500Z,99.95
2022-09-12T15:31:29.486Z,100.00
2022-09-12T15:33:57.921Z,99.46
2022-09-12T15:36:25.855Z,100.00
2022-09-12T15:38:53.697Z,99.19
2022-09-12T15:41:33.351Z,98.78
2022-09-12T15:44:00.109Z,97.49
2022-09-12T15:46:27.143Z,98.84
2022-09-12T15:48:53.778Z,99.02
2022-09-12T15:51:22.192Z,100.00
2022-09-12T15:53:50.452Z,100.00
2022-09-12T15:56:19.764Z,100.00
2022-09-12T15:58:58.407Z,100.00
2022-09-12T16:01:26.751Z,100.00
2022-09-12T16:03:54.786Z,100.00
2022-09-12T16:06:22.262Z,100.00
2022-09-12T16:08:49.348Z,100.00
2022-09-12T16:11:21.672Z,100.00
2022-09-12T16:13:50.571Z,100.00
2022-09-12T16:16:18.494Z,100.00
2022-09-12T16:18:45.648Z,100.00
2022-09-12T16:21:15.462Z,100.00
2022-09-12T16:23:46.674Z,100.00
2022-09-12T16:26:13.926Z,100.00
2022-09-12T16:28:41.050Z,100.00
2022-09-12T16:31:10.669Z,100.00
2022-09-12T16:33:38.054Z,100.00
2022-09-12T16:36:08.280Z,100.00
2022-09-12T16:38:35.887Z,100.00
2022-09-12T16:41:04.512Z,100.00
2022-09-12T16:43:32.586Z,100.00
2022-09-12T16:46:10.287Z,100.00
2022-09-12T16:48:38.382Z,100.00
2022-09-12T16:51:06.996Z,100.00
2022-09-12T16:53:35.958Z,100.00
2022-09-12T16:56:03.507Z,100.00
2022-09-12T16:58:41.049Z,100.00
2022-09-12T17:01:12.728Z,100.00
2022-09-12T17:03:39.631Z,100.00
2022-09-12T17:06:09.534Z,100.00
2022-09-12T17:08:39.511Z,100.00
2022-09-12T17:11:11.821Z,100.00
2022-09-12T17:14:00.524Z,100.00
2022-09-12T17:16:27.086Z,100.00
2022-09-12T17:18:54.940Z,100.00
2022-09-12T17:21:23.384Z,100.00
2022-09-12T17:23:50.114Z,100.00
2022-09-12T17:26:17.405Z,100.00
2022-09-12T17:28:44.178Z,100.00
2022-09-12T17:31:14.422Z,100.00
2022-09-12T17:33:42.130Z,100.00
2022-09-12T17:36:15.192Z,100.00
2022-09-12T17:38:43.696Z,100.00
2022-09-12T17:41:17.699Z,100.00
2022-09-12T17:43:52.492Z,100.00
2022-09-12T17:46:20.106Z,100.00
2022-09-12T17:48:54.725Z,100.00
2022-09-12T17:51:24.559Z,100.00
2022-09-12T17:54:12.080Z,100.00
2022-09-12T17:56:39.121Z,100.00
2022-09-12T17:59:07.676Z,100.00
2022-09-12T18:01:53.097Z,100.00
2022-09-12T18:04:20.228Z,100.00
2022-09-12T18:06:50.883Z,100.00
2022-09-12T18:09:20.086Z,100.00
2022-09-12T18:11:48.149Z,100.00
2022-09-12T18:14:15.599Z,100.00
2022-09-12T18:16:43.237Z,100.00
2022-09-12T18:19:11.225Z,100.00
2022-09-12T18:21:40.235Z,100.00
2022-09-12T18:24:07.199Z,100.00
2022-09-12T18:26:34.598Z,100.00
2022-09-12T18:29:01.232Z,100.00
2022-09-12T18:31:29.859Z,100.00
2022-09-12T18:33:57.354Z,100.00
2022-09-12T18:36:24.314Z,100.00
2022-09-12T18:38:51.192Z,100.00
2022-09-12T18:41:22.529Z,100.00
2022-09-12T18:43:53.401Z,100.00
2022-09-12T18:46:20.267Z,100.00
2022-09-12T18:48:47.199Z,100.00
2022-09-12T18:51:22.682Z,100.00
2022-09-12T18:53:56.058Z,100.00
2022-09-12T18:56:24.548Z,100.00
2022-09-12T18:58:53.409Z,100.00
2022-09-12T19:01:22.286Z,100.00
2022-09-12T19:03:49.412Z,100.00
2022-09-12T19:06:27.216Z,100.00
2022-09-12T19:08:55.479Z,100.00
2022-09-12T19:11:23.075Z,100.00
2022-09-12T19:13:51.121Z,100.00
2022-09-12T19:16:21.866Z,100.00
2022-09-12T19:18:50.191Z,100.00
2022-09-12T19:21:25.119Z,100.00
2022-09-12T19:23:53.312Z,100.00
2022-09-12T19:26:20.831Z,100.00
2022-09-12T19:28:48.034Z,100.00
2022-09-12T19:31:18.808Z,100.00
2022-09-12T19:33:46.244Z,100.00
2022-09-12T19:36:33.997Z,100.00
2022-09-12T19:39:02.608Z,100.00
2022-09-12T19:41:30.498Z,100.00
2022-09-12T19:43:57.662Z,100.00
2022-09-12T19:46:25.709Z,100.00
2022-09-12T19:48:53.093Z,100.00
2022-09-12T19:51:22.013Z,100.00
2022-09-12T19:53:50.244Z,100.00
2022-09-12T19:56:20.267Z,100.00
2022-09-12T19:58:52.040Z,100.00
2022-09-12T20:01:30.000Z,100.00
2022-09-12T20:03:57.675Z,100.00
2022-09-12T20:06:24.990Z,100.00
2022-09-12T20:08:51.832Z,100.00
2022-09-12T20:11:21.555Z,100.00
2022-09-12T20:13:48.093Z,100.00
2022-09-12T20:16:22.817Z,100.00
2022-09-12T20:18:57.564Z,100.00
2022-09-12T20:21:31.221Z,100.00
2022-09-12T20:24:05.314Z,100.00
2022-09-12T20:26:32.241Z,100.00
2022-09-12T20:28:59.287Z,100.00
2022-09-12T20:31:26.241Z,100.00
2022-09-12T20:33:52.883Z,100.00
2022-09-12T20:36:20.948Z,100.00
2022-09-12T20:38:52.912Z,100.00
2022-09-12T20:41:20.783Z,100.00
2022-09-12T20:43:52.243Z,100.00
2022-09-12T20:46:21.839Z,100.00
2022-09-12T20:48:49.345Z,100.00
2022-09-12T20:51:16.669Z,100.00
2022-09-12T20:53:43.176Z,100.00
2022-09-12T20:56:09.844Z,100.00
2022-09-12T20:58:39.404Z,100.00
2022-09-12T21:01:11.605Z,100.00
2022-09-12T21:03:39.212Z,100.00
2022-09-12T21:06:07.031Z,100.00
2022-09-12T21:08:34.244Z,100.00
2022-09-12T21:11:01.052Z,100.00
2022-09-12T21:13:27.628Z,100.00
2022-09-12T21:16:01.961Z,100.00
2022-09-12T21:18:28.939Z,100.00
2022-09-12T21:20:56.519Z,100.00
2022-09-12T21:23:24.819Z,100.00
2022-09-12T21:25:52.534Z,100.00
2022-09-12T21:28:19.793Z,100.00
2022-09-12T21:30:50.557Z,100.00
2022-09-12T21:33:18.633Z,100.00
2022-09-12T21:35:45.917Z,100.00
2022-09-12T21:40:01.181Z,100.00
2022-09-12T21:42:27.734Z,100.00
2022-09-12T21:44:55.292Z,100.00
2022-09-12T21:47:21.819Z,100.00
2022-09-12T21:49:48.347Z,100.00
2022-09-12T21:52:14.853Z,100.00
2022-09-12T21:54:41.355Z,100.00
2022-09-12T21:57:07.979Z,100.00
2022-09-12T21:59:34.532Z,100.00
2022-09-12T22:02:01.083Z,100.00
2022-09-12T22:04:27.644Z,100.00
2022-09-12T22:06:54.145Z,100.00
2022-09-12T22:09:20.671Z,100.00
2022-09-12T22:11:47.163Z,100.00
2022-09-12T22:14:13.735Z,100.00
2022-09-12T22:16:40.495Z,100.00
2022-09-12T22:19:07.097Z,100.00
2022-09-12T22:21:33.621Z,100.00
2022-09-12T22:24:18.243Z,100.00
2022-09-12T22:26:46.315Z,100.00
2022-09-12T22:29:13.531Z,100.00
2022-09-12T22:31:40.528Z,100.00
2022-09-12T22:34:07.748Z,100.00
2022-09-12T22:36:38.640Z,100.00
2022-09-12T22:39:06.354Z,100.00
2022-09-12T22:41:33.017Z,100.00
2022-09-12T22:43:59.859Z,100.00
2022-09-12T22:46:27.226Z,100.00
2022-09-12T22:48:55.607Z,100.00
2022-09-12T22:51:22.200Z,100.00
2022-09-12T22:53:48.970Z,100.00
2022-09-12T22:56:15.809Z,100.00
2022-09-12T22:58:43.244Z,100.00
2022-09-12T23:01:10.569Z,100.00
2022-09-12T23:03:37.477Z,100.00
2022-09-12T23:06:05.135Z,100.00
2022-09-12T23:08:32.054Z,100.00
2022-09-12T23:11:04.567Z,100.00
2022-09-12T23:13:32.214Z,100.00
2022-09-12T23:16:04.139Z,100.00
2022-09-12T23:18:30.722Z,100.00
2022-09-12T23:21:05.601Z,100.00
2022-09-12T23:23:32.387Z,100.00
2022-09-12T23:26:13.727Z,100.00
2022-09-12T23:28:42.383Z,100.00
2022-09-12T23:31:09.746Z,100.00
2022-09-12T23:33:36.849Z,100.00
2022-09-12T23:36:12.690Z,100.00
2022-09-12T23:38:39.267Z,100.00
2022-09-12T23:41:06.700Z,100.00
2022-09-12T23:43:34.120Z,100.00
2022-09-12T23:46:01.475Z,100.00
2022-09-12T23:48:28.184Z,100.00
2022-09-12T23:50:54.914Z,100.00
2022-09-12T23:53:21.798Z,100.00
2022-09-12T23:55:48.677Z,100.00
2022-09-12T23:58:15.844Z,100.00
